Tampa, Florida
Current Conditions -  °F | °C
As of 4:53 AM on Saturday 29 Nov 2014 (Local Time) from KTPA Reporting Station
Clear Clear  
Wind Chill: 44°   Ceiling: Unl
Heat Index: 47°   Visibility: 10mi
Dew Point: 41°   Wind: 7mph
Humidity: 80%   Direction: 30°NNE
Pressure: 30.27"   Gusts: NA
Location:  27.95°N, 82.46°W
Report Text: KTPA 290953Z 03006KT 10SM CLR 08/05 A3027 RMK AO2 SLP250 T00830050
Loading
Personal Weather Stations






























Interactive Weather Map New forecast layout! Learn more

10-Day Weather Forecast

Advertisements
Track Severe Weather on mobile